createdAt,value
2023-04-21T00:02:58.903Z,24.6
2023-04-21T00:08:52.992Z,27.9
2023-04-21T00:14:43.803Z,28
2023-04-21T00:20:35.385Z,26.3
2023-04-21T00:26:27.280Z,25.9
2023-04-21T00:32:03.201Z,25.6
2023-04-21T00:37:54.937Z,25.4
2023-04-21T00:43:31.619Z,25.1
2023-04-21T00:49:23.378Z,24.8
2023-04-21T00:54:44.417Z,24.6
2023-04-21T01:00:36.851Z,28
2023-04-21T01:06:15.465Z,28
2023-04-21T01:11:51.345Z,26.3
2023-04-21T01:17:43.457Z,25.9
2023-04-21T01:23:34.553Z,25.6
2023-04-21T01:29:25.990Z,25.4
2023-04-21T01:35:18.064Z,25.1
2023-04-21T01:40:53.254Z,24.8
2023-04-21T01:46:14.701Z,24.6
2023-04-21T01:51:51.612Z,28
2023-04-21T02:03:04.652Z,26.3
2023-04-21T02:08:57.098Z,25.9
2023-04-21T02:14:48.444Z,25.6
2023-04-21T02:20:57.565Z,25.4
2023-04-21T02:26:49.303Z,25.1
2023-04-21T02:32:47.243Z,24.8
2023-04-21T02:38:23.442Z,24
2023-04-21T02:44:15.095Z,28.6
2023-04-21T02:50:07.175Z,27.1
2023-04-21T02:55:58.877Z,26.1
2023-04-21T03:01:51.265Z,25.8
2023-04-21T03:07:43.873Z,25.6
2023-04-21T03:13:35.350Z,25.3
2023-04-21T03:19:28.130Z,25
2023-04-21T03:25:20.008Z,24.7
2023-04-21T03:30:56.696Z,25.9
2023-04-21T03:36:49.512Z,29.4
2023-04-21T03:42:52.658Z,26.7
2023-04-21T03:48:45.028Z,25.9
2023-04-21T03:54:38.948Z,25.7
2023-04-21T04:00:29.399Z,25.4
2023-04-21T04:06:25.117Z,25.2
2023-04-21T04:12:16.780Z,24.9
2023-04-21T04:17:37.624Z,24.6
2023-04-21T04:23:29.040Z,27
2023-04-21T04:29:21.174Z,29.8
2023-04-21T04:34:59.976Z,26.6
2023-04-21T04:40:51.042Z,26
2023-04-21T04:46:45.398Z,25.7
2023-04-21T04:52:39.384Z,25.4
2023-04-21T04:58:30.172Z,25.1
2023-04-21T05:04:23.956Z,24.8
2023-04-21T05:09:59.752Z,24.4
2023-04-21T05:15:51.781Z,28.5
2023-04-21T05:21:46.612Z,27.6
2023-04-21T05:27:40.998Z,26.2
2023-04-21T05:33:33.143Z,25.8
2023-04-21T05:39:28.216Z,25.5
2023-04-21T05:45:19.925Z,25.3
2023-04-21T05:50:42.482Z,24.9
2023-04-21T05:56:03.727Z,24.7
2023-04-21T06:01:55.161Z,26.8
2023-04-21T06:07:35.456Z,29.9
2023-04-21T06:13:11.574Z,26.6
2023-04-21T06:19:03.071Z,25.8
2023-04-21T06:24:38.801Z,25.6
2023-04-21T06:30:15.824Z,25.4
2023-04-21T06:35:55.379Z,25.1
2023-04-21T06:41:47.035Z,24.8
2023-04-21T06:47:39.898Z,24.3
2023-04-21T06:53:15.012Z,29.8
2023-04-21T06:58:54.002Z,27.1
2023-04-21T07:04:47.889Z,26.3
2023-04-21T07:10:39.473Z,25.9
2023-04-21T07:16:30.681Z,25.7
2023-04-21T07:22:23.384Z,25.4
2023-04-21T07:28:14.320Z,25.1
2023-04-21T07:33:50.122Z,24.8
2023-04-21T07:39:42.594Z,28.4
2023-04-21T07:45:33.267Z,28.1
2023-04-21T07:51:24.777Z,26.4
2023-04-21T07:57:16.657Z,26
2023-04-21T08:02:53.318Z,25.7
2023-04-21T08:08:52.726Z,25.4
2023-04-21T08:14:45.516Z,25.1
2023-04-21T08:20:22.060Z,25.1
2023-04-21T08:26:01.853Z,30.4
2023-04-21T08:31:39.301Z,27.1
2023-04-21T08:38:09.455Z,26.3
2023-04-21T08:44:04.508Z,25.9
2023-04-21T08:49:59.656Z,25.6
2023-04-21T08:56:03.604Z,25.3
2023-04-21T09:01:59.346Z,25
2023-04-21T09:07:27.495Z,25
2023-04-21T09:13:20.725Z,30.4
2023-04-21T09:18:57.484Z,27
2023-04-21T09:24:49.856Z,26.3
2023-04-21T09:30:43.570Z,26
2023-04-21T09:36:55.960Z,25.8
2023-04-21T09:43:33.042Z,25.4
2023-04-21T09:49:47.565Z,25
2023-04-21T09:56:39.152Z,30.4
2023-04-21T10:02:15.788Z,26.9
2023-04-21T10:08:11.210Z,26.3
2023-04-21T10:14:04.209Z,25.9
2023-04-21T10:19:57.176Z,25.6
2023-04-21T10:25:49.149Z,25.3
2023-04-21T10:31:52.354Z,25.1
2023-04-21T10:37:45.282Z,27.4
2023-04-21T10:43:41.247Z,28.8
2023-04-21T10:49:32.980Z,25.9
2023-04-21T10:55:25.606Z,25.4
2023-04-21T11:01:16.662Z,25.1
2023-04-21T11:07:13.661Z,24.9
2023-04-21T11:13:07.307Z,24.7
2023-04-21T11:18:58.517Z,24.4
2023-04-21T11:24:49.530Z,24.2
2023-04-21T11:30:26.325Z,24
2023-04-21T11:36:17.833Z,23.8
2023-04-21T11:42:09.599Z,23.6
2023-04-21T11:48:02.396Z,23.4
2023-04-21T11:53:38.367Z,23.3
2023-04-21T11:59:30.982Z,23
2023-04-21T12:05:24.895Z,22.9
2023-04-21T12:11:01.224Z,22.8
2023-04-21T12:16:54.884Z,22.6
2023-04-21T12:22:47.511Z,22.5
2023-04-21T12:28:38.910Z,22.4
2023-04-21T12:34:34.432Z,22.3
2023-04-21T12:40:27.263Z,22.1
2023-04-21T12:46:18.859Z,22
2023-04-21T12:51:57.232Z,21.9
2023-04-21T12:57:59.350Z,21.8
2023-04-21T13:03:54.669Z,21.8
2023-04-21T13:09:47.194Z,21.6
2023-04-21T13:15:24.494Z,21.6
2023-04-21T13:21:15.767Z,21.5
2023-04-21T13:27:09.282Z,21.4
2023-04-21T13:33:01.389Z,21.4
2023-04-21T13:38:41.967Z,21.3
2023-04-21T13:44:36.371Z,21.3
2023-04-21T13:50:29.546Z,21.2
2023-04-21T13:56:22.982Z,21.2
2023-04-21T14:07:42.825Z,21.1
2023-04-21T14:13:33.487Z,21.1
2023-04-21T14:19:57.253Z,21
2023-04-21T14:25:48.876Z,20.9
2023-04-21T14:31:25.890Z,20.9
2023-04-21T14:37:02.713Z,20.9
2023-04-21T14:42:41.930Z,20.9
2023-04-21T14:48:33.021Z,20.8
2023-04-21T14:54:24.281Z,20.8
2023-04-21T15:00:16.867Z,20.8
2023-04-21T15:06:12.849Z,20.8
2023-04-21T15:11:53.108Z,20.8
2023-04-21T15:17:14.564Z,20.8
2023-04-21T15:23:16.062Z,20.7
2023-04-21T15:28:51.967Z,20.7
2023-04-21T15:34:28.897Z,20.6
2023-04-21T15:40:04.466Z,20.6
2023-04-21T15:45:54.059Z,20.6
2023-04-21T15:51:47.289Z,20.6
2023-04-21T15:57:39.332Z,20.6
2023-04-21T16:03:33.722Z,20.6
2023-04-21T16:09:14.113Z,20.6
2023-04-21T16:15:39.190Z,20.6
2023-04-21T16:21:33.725Z,20.6
2023-04-21T16:27:27.138Z,20.6
2023-04-21T16:33:19.579Z,20.5
2023-04-21T16:39:14.243Z,20.5
2023-04-21T16:45:06.566Z,20.5
2023-04-21T16:50:59.824Z,20.5
2023-04-21T16:56:50.978Z,20.5
2023-04-21T17:02:42.991Z,20.4
2023-04-21T17:08:36.423Z,20.4
2023-04-21T17:14:27.472Z,20.4
2023-04-21T17:20:21.683Z,20.4
2023-04-21T17:26:30.215Z,20.4
2023-04-21T17:32:36.755Z,20.4
2023-04-21T17:38:56.604Z,20.4
2023-04-21T17:44:48.119Z,20.4
2023-04-21T17:50:39.897Z,20.4
2023-04-21T17:56:16.723Z,20.4
2023-04-21T18:02:08.303Z,20.4
2023-04-21T18:07:46.637Z,20.3
2023-04-21T18:13:24.170Z,20.3
2023-04-21T18:19:00.949Z,20.3
2023-04-21T18:24:37.473Z,20.3
2023-04-21T18:30:12.953Z,20.3
2023-04-21T18:35:48.634Z,20.3
2023-04-21T18:41:09.067Z,20.3
2023-04-21T18:46:30.986Z,20.3
2023-04-21T18:52:07.548Z,20.3
2023-04-21T18:57:43.745Z,20.3
2023-04-21T19:03:21.221Z,20.3
2023-04-21T19:09:14.056Z,20.3
2023-04-21T19:15:18.468Z,20.3
2023-04-21T19:21:11.230Z,20.2
2023-04-21T19:27:02.386Z,26.7
2023-04-21T19:32:54.406Z,30.3
2023-04-21T19:38:46.954Z,26.1
2023-04-21T19:44:38.160Z,25.4
2023-04-21T19:50:30.384Z,25.1
2023-04-21T19:56:39.648Z,26.4
2023-04-21T20:02:46.877Z,30
2023-04-21T20:08:40.595Z,26
2023-04-21T20:14:32.137Z,25.3
2023-04-21T20:20:23.908Z,25.1
2023-04-21T20:25:59.658Z,24.8
2023-04-21T20:31:54.094Z,28
2023-04-21T20:37:30.414Z,27.9
2023-04-21T20:43:19.347Z,25.8
2023-04-21T20:49:11.883Z,25.3
2023-04-21T20:55:03.039Z,25
2023-04-21T21:00:54.301Z,24.8
2023-04-21T21:06:50.774Z,26.3
2023-04-21T21:12:45.324Z,30
2023-04-21T21:18:21.502Z,26.1
2023-04-21T21:24:13.170Z,25.4
2023-04-21T21:30:03.687Z,25.2
2023-04-21T21:35:55.948Z,25
2023-04-21T21:41:48.056Z,24.8
2023-04-21T21:47:41.875Z,28.3
2023-04-21T21:59:12.080Z,25.8
2023-04-21T22:05:09.387Z,25.4
2023-04-21T22:11:02.946Z,25.2
2023-04-21T22:17:06.568Z,25
2023-04-21T22:22:58.047Z,24.8
2023-04-21T22:28:33.363Z,28.7
2023-04-21T22:34:26.036Z,27.4
2023-04-21T22:40:16.510Z,25.8
2023-04-21T22:46:07.704Z,25.4
2023-04-21T22:52:00.537Z,25.3
2023-04-21T22:57:52.366Z,25.1
2023-04-21T23:03:45.498Z,24.9
2023-04-21T23:09:22.663Z,28.4
2023-04-21T23:15:14.385Z,27.7
2023-04-21T23:21:06.812Z,25.8
2023-04-21T23:26:58.558Z,25.4
2023-04-21T23:32:50.533Z,25.3
2023-04-21T23:38:42.234Z,25.1
2023-04-21T23:44:34.037Z,24.9
2023-04-21T23:50:26.704Z,27.9
2023-04-21T23:56:03.813Z,28.1
